createdAt,value
2023-02-02T00:00:15.590Z,3.5
2023-02-02T00:03:18.989Z,4.6
2023-02-02T00:05:20.195Z,4.5
2023-02-02T00:07:21.392Z,3.9
2023-02-02T00:09:25.835Z,4
2023-02-02T00:11:27.041Z,4.7
2023-02-02T00:13:28.236Z,3.8
2023-02-02T00:15:29.440Z,4.3
2023-02-02T00:17:30.639Z,3.7
2023-02-02T00:19:31.817Z,3.8
2023-02-02T00:21:33.031Z,5.2
2023-02-02T00:23:39.034Z,3.1
2023-02-02T00:25:40.164Z,3.4
2023-02-02T00:27:41.383Z,5.1
2023-02-02T00:29:42.597Z,4.4
2023-02-02T00:31:43.874Z,6
2023-02-02T00:33:44.990Z,3
2023-02-02T00:35:46.174Z,4
2023-02-02T00:37:50.644Z,2.8
2023-02-02T00:39:51.814Z,4.2
2023-02-02T00:41:53.040Z,3.4
2023-02-02T00:43:54.256Z,3.8
2023-02-02T00:45:55.503Z,2.8
2023-02-02T00:47:56.624Z,3.1
2023-02-02T00:49:57.832Z,4
2023-02-02T00:52:02.269Z,3.6
2023-02-02T00:54:03.508Z,4.5
2023-02-02T00:56:04.697Z,3
2023-02-02T00:57:06.901Z,5.9
2023-02-02T00:59:08.097Z,3.4
2023-02-02T01:01:09.355Z,2.4
2023-02-02T01:03:10.521Z,2.3
2023-02-02T01:05:14.962Z,3.2
2023-02-02T01:07:16.152Z,3.2
2023-02-02T01:09:17.347Z,5.1
2023-02-02T01:11:18.592Z,2.9
2023-02-02T01:13:19.755Z,3
2023-02-02T01:15:20.981Z,3.7
2023-02-02T01:17:22.204Z,4.1
2023-02-02T01:19:26.658Z,4.9
2023-02-02T01:21:27.861Z,3.3
2023-02-02T01:23:29.073Z,4.1
2023-02-02T01:25:30.267Z,3
2023-02-02T01:27:31.467Z,4.2
2023-02-02T01:29:32.681Z,3.1
2023-02-02T01:31:33.919Z,3.5
2023-02-02T01:33:38.317Z,3.1
2023-02-02T01:37:40.719Z,5.8
2023-02-02T01:45:45.739Z,3.6
2023-02-02T01:47:49.944Z,6.4
2023-02-02T01:49:51.149Z,3.3
2023-02-02T01:54:20.710Z,2.8
2023-02-02T01:56:21.887Z,4.2
2023-02-02T02:04:29.969Z,4.3
2023-02-02T02:06:31.153Z,3.1
2023-02-02T02:08:32.343Z,4.5
2023-02-02T02:10:33.552Z,2.8
2023-02-02T02:16:40.514Z,2.6
2023-02-02T02:18:41.605Z,3.4
2023-02-02T02:20:42.835Z,2.6
2023-02-02T02:22:44.023Z,2.8
2023-02-02T02:24:45.250Z,3.7
2023-02-02T02:26:46.476Z,2.9
2023-02-02T02:28:50.878Z,2.3
2023-02-02T02:32:53.290Z,2.9
2023-02-02T02:34:54.460Z,1.8
2023-02-02T02:38:56.866Z,2.5
2023-02-02T02:40:58.080Z,2.2
2023-02-02T02:43:02.577Z,2.6
2023-02-02T02:45:03.742Z,2.3
2023-02-02T02:47:04.943Z,2.2
2023-02-02T02:48:07.176Z,1.9
2023-02-02T02:54:10.784Z,1.6
2023-02-02T02:56:15.244Z,2.3
2023-02-02T02:58:16.453Z,1.6
2023-02-02T03:00:17.663Z,1.6
2023-02-02T03:02:18.898Z,1.2
2023-02-02T03:04:20.051Z,1.8
2023-02-02T03:06:21.268Z,1.2
2023-02-02T03:08:22.448Z,1.5
2023-02-02T03:10:26.905Z,1.9
2023-02-02T03:12:28.101Z,1.9
2023-02-02T03:16:30.512Z,1.9
2023-02-02T03:18:31.713Z,3.3
2023-02-02T03:20:32.876Z,2.8
2023-02-02T03:28:40.929Z,3.3
2023-02-02T03:30:42.119Z,3.5
2023-02-02T03:32:43.313Z,2.8
2023-02-02T03:34:44.497Z,3.2
2023-02-02T03:36:45.675Z,5
2023-02-02T03:38:50.164Z,5.2
2023-02-02T03:40:51.353Z,5.2
2023-02-02T03:42:52.532Z,6.9
2023-02-02T03:52:02.820Z,9.1
2023-02-02T03:54:04.035Z,9.1
2023-02-02T03:56:05.224Z,9.1
2023-02-02T03:58:06.394Z,7.8
2023-02-02T04:00:07.607Z,8.7
2023-02-02T04:02:08.800Z,8.6
2023-02-02T04:04:09.978Z,10.7
2023-02-02T04:06:14.452Z,8.8
2023-02-02T04:08:15.628Z,8.3
2023-02-02T04:10:16.827Z,9.2
2023-02-02T04:16:20.488Z,7.5
2023-02-02T04:18:21.635Z,7.3
2023-02-02T04:28:30.878Z,7.9
2023-02-02T04:30:32.055Z,7
2023-02-02T04:36:38.892Z,6.5
2023-02-02T04:38:40.128Z,7.9
2023-02-02T04:39:42.350Z,7
2023-02-02T04:43:44.725Z,7
2023-02-02T04:45:46.000Z,7
2023-02-02T04:47:50.393Z,8.4
2023-02-02T04:49:51.626Z,6.8
2023-02-02T04:51:52.802Z,6.7
2023-02-02T04:53:54.008Z,10
2023-02-02T04:55:55.267Z,7
2023-02-02T04:57:56.420Z,9.4
2023-02-02T04:59:57.650Z,6
2023-02-02T05:02:02.128Z,6.1
2023-02-02T05:04:03.300Z,7.9
2023-02-02T05:06:04.524Z,5.4
2023-02-02T05:16:13.890Z,6.2
2023-02-02T05:18:15.008Z,5.6
2023-02-02T05:26:19.960Z,9.4
2023-02-02T05:28:21.047Z,8.3
2023-02-02T05:30:25.532Z,8.7
2023-02-02T05:32:26.715Z,5.2
2023-02-02T05:34:27.927Z,6
2023-02-02T05:36:56.268Z,11.4
2023-02-02T05:38:57.481Z,5.9
2023-02-02T05:40:58.702Z,5.5
2023-02-02T05:43:03.167Z,8.2
2023-02-02T05:45:04.385Z,5.5
2023-02-02T05:47:05.586Z,8.9
2023-02-02T05:49:06.793Z,7
2023-02-02T05:51:08.014Z,6.1
2023-02-02T05:55:10.434Z,7.9
2023-02-02T05:59:16.130Z,6.7
2023-02-02T06:01:17.332Z,6.3
2023-02-02T06:03:18.646Z,8.6
2023-02-02T06:05:19.744Z,10.8
2023-02-02T06:07:20.965Z,11.2
2023-02-02T06:09:22.165Z,6.3
2023-02-02T06:11:26.646Z,7.3
2023-02-02T06:13:29.407Z,5.4
2023-02-02T06:15:30.621Z,6.4
2023-02-02T06:17:31.828Z,6.6
2023-02-02T06:19:33.041Z,7.5
2023-02-02T06:21:34.222Z,6.3
2023-02-02T06:25:39.883Z,8.6
2023-02-02T06:27:41.090Z,6.2
2023-02-02T06:34:46.967Z,7.4
2023-02-02T06:38:52.659Z,7.8
2023-02-02T06:40:53.846Z,6.2
2023-02-02T06:42:55.050Z,6.8
2023-02-02T06:51:00.376Z,8.1
2023-02-02T06:53:04.862Z,7
2023-02-02T06:55:06.073Z,6.6
2023-02-02T06:59:08.472Z,7
2023-02-02T07:01:09.863Z,5.8
2023-02-02T07:03:10.918Z,7.7
2023-02-02T07:05:12.128Z,7
2023-02-02T07:09:17.821Z,7.5
2023-02-02T07:13:20.217Z,10.1
2023-02-02T07:15:21.671Z,8
2023-02-02T07:17:22.678Z,7.5
2023-02-02T07:25:30.800Z,6.9
2023-02-02T07:26:33.056Z,8.2
2023-02-02T07:28:34.224Z,8.8
2023-02-02T07:30:35.445Z,7.1
2023-02-02T07:32:36.627Z,6.7
2023-02-02T07:36:42.316Z,8
2023-02-02T07:38:43.547Z,7.4
2023-02-02T07:40:44.734Z,8.8
2023-02-02T07:42:46.452Z,6.5
2023-02-02T07:46:48.583Z,7.6
2023-02-02T07:48:52.848Z,7.5
2023-02-02T07:50:54.071Z,7.4
2023-02-02T07:52:55.312Z,5.8
2023-02-02T07:55:13.646Z,7.7
2023-02-02T07:56:57.726Z,7.7
2023-02-02T07:58:59.035Z,6
2023-02-02T08:03:04.665Z,8.4
2023-02-02T08:05:05.871Z,8
2023-02-02T08:07:07.059Z,8.3
2023-02-02T08:09:08.378Z,8.1
2023-02-02T08:11:09.469Z,7.5
2023-02-02T08:13:10.700Z,6.1
2023-02-02T08:19:17.722Z,6.8
2023-02-02T08:21:18.786Z,6.3
2023-02-02T08:22:21.040Z,7.3
2023-02-02T08:24:22.226Z,8.3
2023-02-02T08:26:23.498Z,6.1
2023-02-02T08:28:24.635Z,6.1
2023-02-02T08:30:29.149Z,6.1
2023-02-02T08:32:30.310Z,9
2023-02-02T08:34:31.703Z,9.7
2023-02-02T08:36:32.750Z,7.1
2023-02-02T08:38:33.945Z,7.4
2023-02-02T08:40:35.227Z,6.7
2023-02-02T08:42:36.353Z,7.2
2023-02-02T08:45:00.277Z,7.4
2023-02-02T08:46:42.076Z,8
2023-02-02T08:48:43.265Z,8.9
2023-02-02T08:50:44.466Z,7.8
2023-02-02T08:52:45.674Z,8.7
2023-02-02T09:00:53.823Z,7.8
2023-02-02T09:10:59.835Z,7.8
2023-02-02T09:19:35.096Z,7.8
2023-02-02T09:21:36.306Z,7.1
2023-02-02T09:23:37.547Z,4.9
2023-02-02T09:25:42.003Z,8.6
2023-02-02T09:27:43.205Z,9.5
2023-02-02T09:29:44.463Z,6.2
2023-02-02T09:31:45.701Z,6.6
2023-02-02T09:33:46.873Z,6.8
2023-02-02T09:35:48.061Z,6.9
2023-02-02T09:39:53.750Z,6.1
2023-02-02T09:41:54.956Z,5.2
2023-02-02T09:43:56.200Z,7.1
2023-02-02T09:45:57.442Z,6.4
2023-02-02T09:49:59.845Z,5.7
2023-02-02T09:54:05.504Z,10.1
2023-02-02T09:56:06.753Z,7.3
2023-02-02T10:02:10.368Z,6.5
2023-02-02T10:04:11.676Z,6.2
2023-02-02T10:06:12.832Z,10.3
2023-02-02T10:08:29.001Z,5.4
2023-02-02T10:10:18.498Z,6.1
2023-02-02T10:13:21.953Z,6.1
2023-02-02T10:15:23.547Z,4.9
2023-02-02T10:17:24.369Z,4.1
2023-02-02T10:19:25.607Z,4.7
2023-02-02T10:21:30.109Z,5.7
2023-02-02T10:23:31.323Z,6
2023-02-02T10:25:32.546Z,6.8
2023-02-02T10:27:33.769Z,6.7
2023-02-02T10:29:48.116Z,6.2
2023-02-02T10:31:36.344Z,6.3
2023-02-02T10:33:37.405Z,6.1
2023-02-02T10:35:41.869Z,6.1
2023-02-02T10:37:43.087Z,6.2
2023-02-02T10:39:44.334Z,6.6
2023-02-02T10:41:45.518Z,6.3
2023-02-02T10:43:46.784Z,5.5
2023-02-02T10:45:48.057Z,6.5
2023-02-02T10:47:49.207Z,6.1
2023-02-02T10:49:56.172Z,5.4
2023-02-02T10:53:56.141Z,6.2
2023-02-02T10:55:57.354Z,7.1
2023-02-02T10:57:58.591Z,10
2023-02-02T10:59:59.793Z,7.2
2023-02-02T11:02:11.734Z,17.8
2023-02-02T11:04:05.487Z,8
2023-02-02T11:06:06.745Z,6.5
2023-02-02T11:08:07.905Z,7.6
2023-02-02T11:09:10.147Z,7.1
2023-02-02T11:11:11.354Z,9.3
2023-02-02T11:13:12.677Z,6.5
2023-02-02T11:15:13.811Z,8.5
2023-02-02T11:17:19.045Z,15.7
2023-02-02T11:19:20.294Z,12.5
2023-02-02T11:21:21.523Z,7.5
2023-02-02T11:23:22.679Z,9.1
2023-02-02T11:25:23.913Z,13
2023-02-02T11:27:25.115Z,15.3
2023-02-02T11:29:26.338Z,25.2
2023-02-02T11:31:30.957Z,20.1
2023-02-02T11:33:32.026Z,22.6
2023-02-02T11:35:33.243Z,12.9
2023-02-02T11:37:34.430Z,16.5
2023-02-02T11:39:35.661Z,21.3
2023-02-02T11:41:36.873Z,25
2023-02-02T11:43:38.085Z,17.3
2023-02-02T11:45:42.574Z,19.4
2023-02-02T11:47:43.779Z,24.8
2023-02-02T11:49:44.971Z,18.5
2023-02-02T11:51:46.186Z,14.2
2023-02-02T11:53:47.460Z,13.5
2023-02-02T11:55:48.655Z,15.1
2023-02-02T11:57:49.847Z,19.7
2023-02-02T11:59:54.331Z,24.5
2023-02-02T12:03:58.382Z,21.8
2023-02-02T12:05:00.510Z,18.7
2023-02-02T12:07:01.728Z,9.4
2023-02-02T12:15:09.816Z,26.3
2023-02-02T12:17:11.032Z,37.8
2023-02-02T12:19:12.265Z,93.6
2023-02-02T12:21:13.482Z,64.2
2023-02-02T12:23:14.706Z,40.4
2023-02-02T12:25:15.894Z,20
2023-02-02T12:27:20.385Z,41
2023-02-02T12:29:21.583Z,28.1
2023-02-02T12:31:22.890Z,33.3
2023-02-02T12:33:24.051Z,31.1
2023-02-02T12:35:25.250Z,17.1
2023-02-02T12:37:26.465Z,11
2023-02-02T12:39:27.712Z,9.6
2023-02-02T12:41:32.196Z,6.5
2023-02-02T12:43:33.443Z,11.8
2023-02-02T12:45:34.654Z,10.7
2023-02-02T12:47:35.831Z,8.7
2023-02-02T12:49:37.066Z,10
2023-02-02T12:51:38.284Z,6.9
2023-02-02T12:53:39.514Z,8.4
2023-02-02T12:55:43.988Z,8.9
2023-02-02T12:57:45.232Z,8.1
2023-02-02T12:59:46.439Z,7.1
2023-02-02T13:02:14.826Z,5.8
2023-02-02T13:04:16.011Z,6.2
2023-02-02T13:08:21.714Z,7.7
2023-02-02T13:10:23.130Z,6.6
2023-02-02T13:12:24.150Z,9.2
2023-02-02T13:22:33.503Z,4.6
2023-02-02T13:40:47.740Z,5.3
2023-02-02T13:46:51.383Z,4.7
2023-02-02T13:48:52.595Z,3.8
2023-02-02T13:50:57.074Z,5.6
2023-02-02T13:52:58.286Z,4.6
2023-02-02T13:56:01.722Z,5.7
2023-02-02T13:58:02.941Z,5.3
2023-02-02T14:00:04.160Z,4.2
2023-02-02T14:02:05.440Z,6
2023-02-02T14:04:09.844Z,4.8
2023-02-02T14:06:11.069Z,6.1
2023-02-02T14:08:12.292Z,4
2023-02-02T14:10:13.522Z,4.9
2023-02-02T14:12:14.697Z,5.1
2023-02-02T14:14:15.922Z,5.6
2023-02-02T14:18:21.622Z,6.1
2023-02-02T14:20:22.839Z,5.8
2023-02-02T14:22:24.070Z,5.4
2023-02-02T14:26:26.585Z,5.8
2023-02-02T14:28:27.716Z,6.1
2023-02-02T14:30:28.946Z,6.2
2023-02-02T14:32:33.435Z,7.4
2023-02-02T14:34:34.637Z,6.7
2023-02-02T14:36:35.835Z,5.2
2023-02-02T14:40:38.286Z,4.9
2023-02-02T14:42:39.498Z,4.2
2023-02-02T14:44:40.713Z,4.9
2023-02-02T14:46:45.196Z,7.4
2023-02-02T14:51:49.926Z,6.6
2023-02-02T14:53:51.093Z,8.4
2023-02-02T14:55:52.312Z,8.3
2023-02-02T14:57:53.504Z,9.4
2023-02-02T15:01:59.285Z,20.4
2023-02-02T15:04:00.451Z,8.9
2023-02-02T15:18:12.199Z,26.6
2023-02-02T15:28:21.539Z,25.3
2023-02-02T15:30:22.739Z,13.9
2023-02-02T15:36:26.405Z,8.6
2023-02-02T15:44:34.565Z,8.1
2023-02-02T15:46:35.949Z,8
2023-02-02T15:47:38.023Z,8.4
2023-02-02T15:49:39.252Z,8.1
2023-02-02T15:51:40.473Z,10.3
2023-02-02T15:53:41.728Z,5.9
2023-02-02T15:55:46.149Z,10.7
2023-02-02T15:57:47.378Z,9.2
2023-02-02T15:59:48.591Z,9.3
2023-02-02T16:01:49.851Z,22.6
2023-02-02T16:03:51.067Z,24.8
2023-02-02T16:05:52.306Z,87.8
2023-02-02T16:08:05.033Z,103.7
2023-02-02T16:09:57.962Z,201.1
2023-02-02T16:14:00.414Z,24.8
2023-02-02T16:16:01.835Z,12.8
2023-02-02T16:18:02.850Z,11.1
2023-02-02T16:20:04.087Z,11.4
2023-02-02T16:22:05.311Z,8.3
2023-02-02T16:24:09.808Z,11.7
2023-02-02T16:26:11.018Z,13.8
2023-02-02T16:28:12.232Z,14.8
2023-02-02T16:30:13.444Z,16.3
2023-02-02T16:32:14.685Z,19.8
2023-02-02T16:34:15.903Z,19.3
2023-02-02T16:36:24.449Z,35.4
2023-02-02T16:38:21.612Z,13.4
2023-02-02T16:40:22.929Z,11
2023-02-02T16:42:24.041Z,19.3
2023-02-02T16:44:52.417Z,23.2
2023-02-02T16:46:53.618Z,11.6
2023-02-02T16:48:54.827Z,12.2
2023-02-02T16:50:59.336Z,17.2
2023-02-02T16:53:00.551Z,12.8
2023-02-02T16:55:01.784Z,11.3
2023-02-02T16:57:02.989Z,12.6
2023-02-02T16:59:04.245Z,15.4
2023-02-02T17:01:14.929Z,14.1
2023-02-02T17:03:06.682Z,10
2023-02-02T17:05:11.152Z,40.1
2023-02-02T17:07:12.421Z,24.3
2023-02-02T17:09:13.612Z,32.5
2023-02-02T17:11:14.839Z,17.3
2023-02-02T17:13:16.045Z,13
2023-02-02T17:15:17.302Z,36.5
2023-02-02T17:17:18.540Z,29.2
2023-02-02T17:19:23.025Z,37.7
2023-02-02T17:21:24.277Z,23.9
2023-02-02T17:23:25.466Z,11
2023-02-02T17:25:27.016Z,11.3
2023-02-02T17:33:34.861Z,12
2023-02-02T17:35:52.697Z,11.4
2023-02-02T17:37:37.297Z,17
2023-02-02T17:38:39.536Z,12.8
2023-02-02T17:40:40.760Z,12.7
2023-02-02T17:42:41.974Z,10.8
2023-02-02T17:44:43.203Z,16.2
2023-02-02T17:46:47.694Z,18.1
2023-02-02T17:52:52.896Z,38.8
2023-02-02T17:54:54.097Z,61.4
2023-02-02T17:56:55.289Z,32.5
2023-02-02T17:58:56.535Z,15.9
2023-02-02T18:01:01.028Z,14.8
2023-02-02T18:03:02.259Z,18.5
2023-02-02T18:05:03.458Z,12.8
2023-02-02T18:07:04.670Z,15.9
2023-02-02T18:13:08.356Z,15.4
2023-02-02T18:27:20.192Z,16.2
2023-02-02T18:29:24.807Z,20.1
2023-02-02T18:31:25.930Z,18.4
2023-02-02T18:33:27.089Z,15.7
2023-02-02T18:34:29.324Z,17.2
2023-02-02T18:36:30.535Z,17
2023-02-02T18:38:31.758Z,27.9
2023-02-02T18:40:32.978Z,17.5
2023-02-02T18:42:37.455Z,39
2023-02-02T18:44:38.683Z,25.4
2023-02-02T18:46:39.907Z,19.4
2023-02-02T18:48:41.160Z,20.5
2023-02-02T18:50:42.354Z,18.1
2023-02-02T18:52:43.563Z,18.7
2023-02-02T18:54:47.209Z,36.2
2023-02-02T18:56:49.252Z,19
2023-02-02T18:58:50.469Z,17.7
2023-02-02T19:00:51.686Z,19.5
2023-02-02T19:02:52.912Z,61.1
2023-02-02T19:04:54.111Z,30.6
2023-02-02T19:06:55.377Z,19.9
2023-02-02T19:08:56.541Z,17.2
2023-02-02T19:11:01.021Z,15.2
2023-02-02T19:13:02.263Z,15.9
2023-02-02T19:15:03.464Z,16.9
2023-02-02T19:17:04.709Z,15.8
2023-02-02T19:19:05.920Z,15.8
2023-02-02T19:21:07.140Z,18.3
2023-02-02T19:23:08.354Z,19.1
2023-02-02T19:25:12.993Z,18
2023-02-02T19:27:14.083Z,16.8
2023-02-02T19:29:15.291Z,17.7
2023-02-02T19:30:17.504Z,17
2023-02-02T19:32:18.737Z,16.4
2023-02-02T19:34:19.992Z,17.8
2023-02-02T19:36:21.201Z,16.2
2023-02-02T19:38:25.669Z,17.8
2023-02-02T19:40:27.407Z,17.1
2023-02-02T19:42:28.117Z,18.3
2023-02-02T19:46:30.621Z,17.3
2023-02-02T19:48:31.758Z,17.6
2023-02-02T19:50:32.974Z,16.4
2023-02-02T19:56:39.902Z,17.4
2023-02-02T19:58:41.119Z,15.7
2023-02-02T20:00:42.353Z,15.4
2023-02-02T20:02:43.637Z,17.7
2023-02-02T20:04:44.782Z,19.8
2023-02-02T20:06:59.006Z,18.9
2023-02-02T20:08:50.480Z,28
2023-02-02T20:10:51.734Z,73.2
2023-02-02T20:12:52.907Z,21.3
2023-02-02T20:14:54.110Z,18.4
2023-02-02T20:21:01.041Z,15
2023-02-02T20:23:02.305Z,14.3
2023-02-02T20:25:03.476Z,12.4
2023-02-02T20:27:31.790Z,19.8
2023-02-02T20:29:33.039Z,42.8
2023-02-02T20:31:34.270Z,18.2
2023-02-02T20:33:38.725Z,19.1
2023-02-02T20:37:41.157Z,14.5
2023-02-02T20:39:42.370Z,12.2
2023-02-02T20:41:43.598Z,29.2
2023-02-02T20:43:44.797Z,15
2023-02-02T20:45:46.206Z,14.2
2023-02-02T20:47:50.504Z,15.4
2023-02-02T20:49:51.758Z,13.1
2023-02-02T20:51:52.963Z,11.4
2023-02-02T20:53:54.171Z,12.7
2023-02-02T20:55:55.374Z,13.9
2023-02-02T20:57:56.612Z,12.6
2023-02-02T20:59:57.830Z,12.8
2023-02-02T21:02:02.400Z,12.7
2023-02-02T21:04:03.499Z,15.4
2023-02-02T21:06:04.720Z,12.9
2023-02-02T21:08:05.939Z,12.7
2023-02-02T21:10:07.149Z,12.7
2023-02-02T21:12:08.356Z,11.2
2023-02-02T21:14:09.579Z,12.8
2023-02-02T21:16:14.107Z,11.5
2023-02-02T21:18:15.257Z,11.6
2023-02-02T21:20:16.508Z,10.9
2023-02-02T21:21:18.804Z,10.4
2023-02-02T21:23:19.953Z,11.9
2023-02-02T21:25:21.151Z,11.8
2023-02-02T21:39:32.929Z,10
2023-02-02T21:41:34.145Z,13.7
2023-02-02T21:47:41.046Z,8.7
2023-02-02T21:49:42.299Z,10.5
2023-02-02T21:59:51.640Z,7.6
2023-02-02T22:01:52.898Z,9.3
2023-02-02T22:03:54.051Z,9.2
2023-02-02T22:05:55.290Z,9.6
2023-02-02T22:07:56.492Z,8.9
2023-02-02T22:09:57.718Z,10.7
2023-02-02T22:14:03.428Z,9
2023-02-02T22:16:04.776Z,8.7
2023-02-02T22:17:06.879Z,11.1
2023-02-02T22:19:08.083Z,7.7
2023-02-02T22:21:09.321Z,9.7
2023-02-02T22:23:10.543Z,8.7
2023-02-02T22:25:15.052Z,9.1
2023-02-02T22:27:16.233Z,10.4
2023-02-02T22:29:17.463Z,7.7
2023-02-02T22:33:19.890Z,8.4
2023-02-02T22:35:21.109Z,9
2023-02-02T22:37:22.335Z,6.8
2023-02-02T22:39:26.826Z,7.1
2023-02-02T22:41:28.145Z,8.1
2023-02-02T22:43:29.295Z,7.4
2023-02-02T22:45:30.552Z,6.5
2023-02-02T22:47:31.756Z,6.4
2023-02-02T22:49:32.975Z,7.1
2023-02-02T22:51:34.216Z,7.3
2023-02-02T22:53:38.690Z,6.3
2023-02-02T22:55:39.903Z,6.6
2023-02-02T22:57:41.155Z,6.2
2023-02-02T22:59:42.345Z,5.8
2023-02-02T23:01:43.567Z,6.7
2023-02-02T23:03:44.807Z,5.5
2023-02-02T23:05:46.071Z,6.1
2023-02-02T23:07:50.531Z,5.2
2023-02-02T23:09:51.750Z,5.1
2023-02-02T23:11:52.977Z,6.5
2023-02-02T23:21:03.367Z,5.6
2023-02-02T23:23:04.587Z,5.3
2023-02-02T23:25:05.819Z,5.8
2023-02-02T23:29:08.260Z,7.8
2023-02-02T23:33:10.777Z,5.9
2023-02-02T23:35:15.171Z,7.1
2023-02-02T23:39:17.658Z,5.6
2023-02-02T23:41:18.880Z,5.6
2023-02-02T23:43:21.635Z,6.3
2023-02-02T23:45:22.821Z,6.5
2023-02-02T23:47:24.049Z,7.5
2023-02-02T23:49:28.526Z,6.3
2023-02-02T23:53:30.964Z,11.3
2023-02-02T23:59:34.651Z,7.7
